createdAt,value
2019-02-16T00:00:05.730Z,6.97
2019-02-16T00:02:34.342Z,6.85
2019-02-16T00:05:03.113Z,6.70
2019-02-16T00:07:31.761Z,6.58
2019-02-16T00:10:00.352Z,6.53
2019-02-16T00:12:28.990Z,6.83
2019-02-16T00:14:57.622Z,7.50
2019-02-16T00:17:26.226Z,6.37
2019-02-16T00:19:54.971Z,6.37
2019-02-16T00:22:23.776Z,6.75
2019-02-16T00:24:52.343Z,6.20
2019-02-16T00:27:20.953Z,6.70
2019-02-16T00:29:49.839Z,6.75
2019-02-16T00:32:18.569Z,6.58
2019-02-16T00:34:47.135Z,6.60
2019-02-16T00:37:15.850Z,7.57
2019-02-16T00:39:44.355Z,6.85
2019-02-16T00:42:13.130Z,6.90
2019-02-16T00:44:41.857Z,6.90
2019-02-16T00:47:10.453Z,7.12
2019-02-16T00:49:39.067Z,7.03
2019-02-16T00:52:07.743Z,7.92
2019-02-16T00:54:36.358Z,8.38
2019-02-16T00:57:05.052Z,7.55
2019-02-16T00:59:33.688Z,8.30
2019-02-16T01:02:02.443Z,7.47
2019-02-16T01:04:31.020Z,7.95
2019-02-16T01:06:59.557Z,8.08
2019-02-16T01:09:28.122Z,7.78
2019-02-16T01:11:56.975Z,7.65
2019-02-16T01:14:25.509Z,6.87
2019-02-16T01:16:54.112Z,7.42
2019-02-16T01:19:22.794Z,6.50
2019-02-16T01:21:51.409Z,7.33
2019-02-16T01:24:20.015Z,6.93
2019-02-16T01:26:48.814Z,7.20
2019-02-16T01:29:17.530Z,7.10
2019-02-16T01:31:46.083Z,6.97
2019-02-16T01:34:14.722Z,7.23
2019-02-16T01:36:43.508Z,6.33
2019-02-16T01:39:12.172Z,7.90
2019-02-16T01:41:40.782Z,6.90
2019-02-16T01:44:09.439Z,6.73
2019-02-16T01:46:38.235Z,6.78
2019-02-16T01:49:07.271Z,6.95
2019-02-16T01:51:36.130Z,7.60
2019-02-16T01:54:04.974Z,7.35
2019-02-16T01:56:33.610Z,7.33
2019-02-16T01:59:02.219Z,7.23
2019-02-16T02:01:30.822Z,7.92
2019-02-16T02:03:59.379Z,7.42
2019-02-16T02:06:28.028Z,7.37
2019-02-16T02:08:56.672Z,8.20
2019-02-16T02:11:25.290Z,7.83
2019-02-16T02:13:54.021Z,7.40
2019-02-16T02:16:22.632Z,7.83
2019-02-16T02:18:51.224Z,7.65
2019-02-16T02:21:19.999Z,7.37
2019-02-16T02:23:48.690Z,7.12
2019-02-16T02:26:17.546Z,7.45
2019-02-16T02:28:46.086Z,8.23
2019-02-16T02:31:14.816Z,7.73
2019-02-16T02:33:43.849Z,6.83
2019-02-16T02:36:12.497Z,7.10
2019-02-16T02:38:41.045Z,8.03
2019-02-16T02:41:09.724Z,7.85
2019-02-16T02:43:38.377Z,7.17
2019-02-16T02:46:06.987Z,8.15
2019-02-16T02:48:35.536Z,7.80
2019-02-16T02:51:04.222Z,7.67
2019-02-16T02:53:32.834Z,7.67
2019-02-16T02:56:01.452Z,7.93
2019-02-16T02:58:30.140Z,7.62
2019-02-16T03:00:58.816Z,7.75
2019-02-16T03:03:27.474Z,7.78
2019-02-16T03:05:56.065Z,8.03
2019-02-16T03:08:24.838Z,8.23
2019-02-16T03:10:53.455Z,7.65
2019-02-16T03:13:22.093Z,7.80
2019-02-16T03:15:50.698Z,7.97
2019-02-16T03:18:19.302Z,7.75
2019-02-16T03:20:48.142Z,7.35
2019-02-16T03:23:19.168Z,7.27
2019-02-16T03:25:50.683Z,7.37
2019-02-16T03:28:31.083Z,7.95
2019-02-16T03:31:22.494Z,8.35
2019-02-16T03:33:56.614Z,7.65
2019-02-16T03:36:57.273Z,7.55
2019-02-16T03:39:26.093Z,7.30
2019-02-16T03:41:54.690Z,8.20
2019-02-16T03:44:23.329Z,7.62
2019-02-16T03:46:51.981Z,8.35
2019-02-16T03:49:20.622Z,8.30
2019-02-16T03:51:49.228Z,7.53
2019-02-16T03:54:17.945Z,8.60
2019-02-16T03:56:46.677Z,7.15
2019-02-16T03:59:15.212Z,8.23
2019-02-16T04:01:43.763Z,7.42
2019-02-16T04:04:12.476Z,7.95
2019-02-16T04:06:41.090Z,7.72
2019-02-16T04:09:09.718Z,7.90
2019-02-16T04:11:38.326Z,7.67
2019-02-16T04:14:06.914Z,7.25
2019-02-16T04:16:35.530Z,8.58
2019-02-16T04:19:04.177Z,7.33
2019-02-16T04:21:32.814Z,7.50
2019-02-16T04:24:01.363Z,7.97
2019-02-16T04:26:29.994Z,7.78
2019-02-16T04:28:58.615Z,8.00
2019-02-16T04:31:27.262Z,8.08
2019-02-16T04:33:55.976Z,8.15
2019-02-16T04:36:24.575Z,7.80
2019-02-16T04:38:53.151Z,7.80
2019-02-16T04:41:21.750Z,8.33
2019-02-16T04:43:50.358Z,7.75
2019-02-16T04:46:18.964Z,7.83
2019-02-16T04:48:47.623Z,8.25
2019-02-16T04:51:16.338Z,8.78
2019-02-16T04:53:45.028Z,7.60
2019-02-16T04:56:13.677Z,8.33
2019-02-16T04:58:42.289Z,8.20
2019-02-16T05:01:10.989Z,8.15
2019-02-16T05:03:39.575Z,8.70
2019-02-16T05:06:08.184Z,7.80
2019-02-16T05:08:36.750Z,8.63
2019-02-16T05:11:05.352Z,8.13
2019-02-16T05:13:34.103Z,8.10
2019-02-16T05:16:03.022Z,8.28
2019-02-16T05:18:31.591Z,8.30
2019-02-16T05:21:00.304Z,7.92
2019-02-16T05:23:28.951Z,7.87
2019-02-16T05:25:57.630Z,8.55
2019-02-16T05:28:26.263Z,7.83
2019-02-16T05:30:54.869Z,8.73
2019-02-16T05:33:23.628Z,8.25
2019-02-16T05:35:52.377Z,7.80
2019-02-16T05:38:20.968Z,8.20
2019-02-16T05:40:49.645Z,7.83
2019-02-16T05:43:18.335Z,7.90
2019-02-16T05:45:47.013Z,7.80
2019-02-16T05:48:15.712Z,8.83
2019-02-16T05:50:44.321Z,7.80
2019-02-16T05:53:13.036Z,7.93
2019-02-16T05:55:41.655Z,8.93
2019-02-16T05:58:10.264Z,8.05
2019-02-16T06:00:38.795Z,8.70
2019-02-16T06:03:07.894Z,8.70
2019-02-16T06:05:36.591Z,8.18
2019-02-16T06:08:05.387Z,8.23
2019-02-16T06:10:34.215Z,9.23
2019-02-16T06:13:02.917Z,8.85
2019-02-16T06:15:31.550Z,8.80
2019-02-16T06:18:00.218Z,8.18
2019-02-16T06:20:28.789Z,8.45
2019-02-16T06:23:03.867Z,8.73
2019-02-16T06:25:27.689Z,8.85
2019-02-16T06:27:56.429Z,8.78
2019-02-16T06:30:24.971Z,8.93
2019-02-16T06:32:53.589Z,9.15
2019-02-16T06:35:26.557Z,8.60
2019-02-16T06:37:55.192Z,8.67
2019-02-16T06:40:23.803Z,7.97
2019-02-16T06:42:52.436Z,8.75
2019-02-16T06:45:21.043Z,8.87
2019-02-16T06:47:49.659Z,8.83
2019-02-16T06:50:18.278Z,8.73
2019-02-16T06:52:47.231Z,8.78
2019-02-16T06:55:15.942Z,8.60
2019-02-16T06:57:46.142Z,8.23
2019-02-16T07:00:16.332Z,7.97
2019-02-16T07:02:44.947Z,9.28
2019-02-16T07:05:13.681Z,8.30
2019-02-16T07:07:42.415Z,8.80
2019-02-16T07:10:11.035Z,8.63
2019-02-16T07:12:39.608Z,8.15
2019-02-16T07:15:08.392Z,7.87
2019-02-16T07:17:41.563Z,7.85
2019-02-16T07:20:10.456Z,7.60
2019-02-16T07:22:39.069Z,7.95
2019-02-16T07:25:08.616Z,8.13
2019-02-16T07:27:37.236Z,7.75
2019-02-16T07:30:08.613Z,7.67
2019-02-16T07:32:37.229Z,8.30
2019-02-16T07:35:07.228Z,8.48
2019-02-16T07:37:35.862Z,8.78
2019-02-16T07:40:06.002Z,7.45
2019-02-16T07:42:48.539Z,8.60
2019-02-16T07:45:19.545Z,8.23
2019-02-16T07:47:49.996Z,8.70
2019-02-16T07:50:23.119Z,8.15
2019-02-16T07:52:56.316Z,7.75
2019-02-16T07:55:26.496Z,8.63
2019-02-16T07:57:56.752Z,8.20
2019-02-16T08:00:26.974Z,8.15
2019-02-16T08:02:59.991Z,8.03
2019-02-16T08:05:48.535Z,8.45
2019-02-16T08:08:18.818Z,7.83
2019-02-16T08:10:49.160Z,8.07
2019-02-16T08:13:35.792Z,8.23
2019-02-16T08:16:21.143Z,8.43
2019-02-16T08:18:54.161Z,8.10
2019-02-16T08:21:30.346Z,8.23
2019-02-16T08:24:15.977Z,8.13
2019-02-16T08:27:04.389Z,8.40
2019-02-16T08:29:34.684Z,7.70
2019-02-16T08:32:08.348Z,8.15
2019-02-16T08:34:47.567Z,8.63
2019-02-16T08:37:23.808Z,8.40
2019-02-16T08:40:09.070Z,8.15
2019-02-16T08:42:56.091Z,8.43
2019-02-16T08:45:26.694Z,7.78
2019-02-16T08:47:59.956Z,8.53
2019-02-16T08:50:35.997Z,8.33
2019-02-16T08:53:06.279Z,9.03
2019-02-16T08:55:52.855Z,8.60
2019-02-16T08:58:39.246Z,8.83
2019-02-16T09:01:20.133Z,8.05
2019-02-16T09:03:53.280Z,8.60
2019-02-16T09:06:23.678Z,8.40
2019-02-16T09:08:54.112Z,8.45
2019-02-16T09:11:33.257Z,9.10
2019-02-16T09:14:06.549Z,8.80
2019-02-16T09:16:39.868Z,8.70
2019-02-16T09:19:26.594Z,8.97
2019-02-16T09:22:02.542Z,8.88
2019-02-16T09:24:32.773Z,8.53
2019-02-16T09:27:10.623Z,8.55
2019-02-16T09:29:44.777Z,7.47
2019-02-16T09:32:15.310Z,8.30
2019-02-16T09:34:51.745Z,8.48
2019-02-16T09:37:22.233Z,8.40
2019-02-16T09:39:52.493Z,8.05
2019-02-16T09:42:39.205Z,8.70
2019-02-16T09:45:26.427Z,8.38
2019-02-16T09:47:56.678Z,7.97
2019-02-16T09:50:28.230Z,8.15
2019-02-16T09:53:07.640Z,8.30
2019-02-16T09:55:54.418Z,8.63
2019-02-16T09:58:27.395Z,10.05
2019-02-16T10:00:58.164Z,9.83
2019-02-16T10:03:47.140Z,9.63
2019-02-16T10:06:20.455Z,9.83
2019-02-16T10:08:50.952Z,10.27
2019-02-16T10:11:39.536Z,10.50
2019-02-16T10:14:12.493Z,10.95
2019-02-16T10:16:42.796Z,10.30
2019-02-16T10:19:25.038Z,11.27
2019-02-16T10:21:58.117Z,11.73
2019-02-16T10:24:34.173Z,10.78
2019-02-16T10:27:07.052Z,11.93
2019-02-16T10:29:53.516Z,12.63
2019-02-16T10:32:23.764Z,11.90
2019-02-16T10:34:56.547Z,12.78
2019-02-16T10:37:26.805Z,11.67
2019-02-16T10:40:02.967Z,12.75
2019-02-16T10:42:35.931Z,13.50
2019-02-16T10:45:09.726Z,12.95
2019-02-16T10:47:40.116Z,11.97
2019-02-16T10:50:13.400Z,12.03
2019-02-16T10:52:52.467Z,12.33
2019-02-16T10:55:22.770Z,12.10
2019-02-16T10:57:53.027Z,12.47
2019-02-16T11:00:35.647Z,12.70
2019-02-16T11:03:11.851Z,12.20
2019-02-16T11:05:48.301Z,12.43
2019-02-16T11:08:19.062Z,12.37
2019-02-16T11:10:55.293Z,11.63
2019-02-16T11:13:31.536Z,12.63
2019-02-16T11:16:04.781Z,12.63
2019-02-16T11:18:47.358Z,12.28
2019-02-16T11:21:23.544Z,12.87
2019-02-16T11:24:06.098Z,12.33
2019-02-16T11:26:52.820Z,13.13
2019-02-16T11:29:23.116Z,12.93
2019-02-16T11:31:53.545Z,13.07
2019-02-16T11:34:26.616Z,12.65
2019-02-16T11:37:03.466Z,13.48
2019-02-16T11:39:39.685Z,13.85
2019-02-16T11:42:28.557Z,13.08
2019-02-16T11:44:58.813Z,13.17
2019-02-16T11:47:32.463Z,13.50
2019-02-16T11:50:19.078Z,13.77
2019-02-16T11:53:06.061Z,13.90
2019-02-16T11:55:39.388Z,14.05
2019-02-16T11:58:09.638Z,13.70
2019-02-16T12:00:45.871Z,13.75
2019-02-16T12:03:16.605Z,13.83
2019-02-16T12:05:46.896Z,14.13
2019-02-16T12:08:17.183Z,13.98
2019-02-16T12:10:56.798Z,13.43
2019-02-16T12:13:32.882Z,12.78
2019-02-16T12:16:15.106Z,13.68
2019-02-16T12:19:01.756Z,13.43
2019-02-16T12:21:38.710Z,13.15
2019-02-16T12:24:08.902Z,13.08
2019-02-16T12:26:39.278Z,12.43
2019-02-16T12:29:09.482Z,12.53
2019-02-16T12:31:48.646Z,12.82
2019-02-16T12:34:30.734Z,11.88
2019-02-16T12:37:06.603Z,12.23
2019-02-16T12:39:55.467Z,12.45
2019-02-16T12:42:28.321Z,12.63
2019-02-16T12:45:07.738Z,12.25
2019-02-16T12:47:50.146Z,12.50
2019-02-16T12:50:20.402Z,12.60
2019-02-16T12:52:53.457Z,12.07
2019-02-16T12:55:35.726Z,12.90
2019-02-16T12:58:06.077Z,12.75
2019-02-16T13:00:41.908Z,12.35
2019-02-16T13:03:12.540Z,13.35
2019-02-16T13:05:59.150Z,11.67
2019-02-16T13:08:32.296Z,12.43
2019-02-16T13:11:05.423Z,13.90
2019-02-16T13:13:35.677Z,12.80
2019-02-16T13:16:08.766Z,12.73
2019-02-16T13:18:44.764Z,12.53
2019-02-16T13:21:15.014Z,12.42
2019-02-16T13:23:45.272Z,11.93
2019-02-16T13:26:18.561Z,12.28
2019-02-16T13:28:51.820Z,12.60
2019-02-16T13:31:28.557Z,13.15
2019-02-16T13:34:14.896Z,12.75
2019-02-16T13:36:57.543Z,11.75
2019-02-16T13:39:27.761Z,11.57
2019-02-16T13:41:58.054Z,12.73
2019-02-16T13:44:37.598Z,12.28
2019-02-16T13:47:07.882Z,11.97
2019-02-16T13:49:38.778Z,12.75
2019-02-16T13:52:24.498Z,12.00
2019-02-16T13:55:14.185Z,12.33
2019-02-16T13:57:50.449Z,11.37
2019-02-16T14:00:35.747Z,13.00
2019-02-16T14:03:06.045Z,12.40
2019-02-16T14:05:45.652Z,13.22
2019-02-16T14:08:21.918Z,12.60
2019-02-16T14:10:52.179Z,12.25
2019-02-16T14:13:31.368Z,12.83
2019-02-16T14:16:19.948Z,12.60
2019-02-16T14:18:48.530Z,12.50
2019-02-16T14:21:17.166Z,11.83
2019-02-16T14:23:45.843Z,12.82
2019-02-16T14:26:14.462Z,13.77
2019-02-16T14:28:43.036Z,13.38
2019-02-16T14:31:12.968Z,12.75
2019-02-16T14:33:41.578Z,13.75
2019-02-16T14:36:10.300Z,13.13
2019-02-16T14:38:40.723Z,13.58
2019-02-16T14:41:09.420Z,13.30
2019-02-16T14:43:38.095Z,13.53
2019-02-16T14:46:06.987Z,13.10
2019-02-16T14:48:35.605Z,13.60
2019-02-16T14:51:04.192Z,12.98
2019-02-16T14:53:32.777Z,14.05
2019-02-16T14:56:01.396Z,13.25
2019-02-16T14:58:30.112Z,12.90
2019-02-16T15:00:59.109Z,14.38
2019-02-16T15:03:27.760Z,13.05
2019-02-16T15:05:56.454Z,14.18
2019-02-16T15:08:25.398Z,13.50
2019-02-16T15:10:54.254Z,13.75
2019-02-16T15:13:22.827Z,13.67
2019-02-16T15:15:51.453Z,14.78
2019-02-16T15:18:19.942Z,14.33
2019-02-16T15:20:48.621Z,14.87
2019-02-16T15:23:17.402Z,14.90
2019-02-16T15:25:46.026Z,14.58
2019-02-16T15:28:14.745Z,15.93
2019-02-16T15:30:43.329Z,16.45
2019-02-16T15:33:11.872Z,16.35
2019-02-16T15:35:40.867Z,15.45
2019-02-16T15:38:09.527Z,15.13
2019-02-16T15:40:38.075Z,16.00
2019-02-16T15:43:06.689Z,16.20
2019-02-16T15:45:35.377Z,16.93
2019-02-16T15:48:04.816Z,15.97
2019-02-16T15:50:33.501Z,15.93
2019-02-16T15:53:02.222Z,16.00
2019-02-16T15:55:30.872Z,15.65
2019-02-16T15:57:59.541Z,16.75
2019-02-16T16:00:29.068Z,15.43
2019-02-16T16:02:59.624Z,15.80
2019-02-16T16:05:28.251Z,15.35
2019-02-16T16:08:10.850Z,15.38
2019-02-16T16:10:41.108Z,17.20
2019-02-16T16:13:14.573Z,16.22
2019-02-16T16:15:44.975Z,17.27
2019-02-16T16:18:33.416Z,17.17
2019-02-16T16:21:15.649Z,17.23
2019-02-16T16:24:02.137Z,17.97
2019-02-16T16:26:48.958Z,20.25
2019-02-16T16:29:28.136Z,21.20
2019-02-16T16:32:04.261Z,19.60
2019-02-16T16:34:43.737Z,20.60
2019-02-16T16:37:30.099Z,18.52
2019-02-16T16:40:00.389Z,18.50
2019-02-16T16:42:42.541Z,19.70
2019-02-16T16:45:24.126Z,19.47
2019-02-16T16:48:06.337Z,18.05
2019-02-16T16:50:36.959Z,19.32
2019-02-16T16:53:07.228Z,23.42
2019-02-16T16:55:43.291Z,54.80
2019-02-16T16:58:29.511Z,63.65
2019-02-16T17:01:17.697Z,74.70
2019-02-16T17:03:56.994Z,72.32
2019-02-16T17:06:35.963Z,66.92
2019-02-16T17:09:08.054Z,58.30
2019-02-16T17:11:44.250Z,51.55
2019-02-16T17:14:17.033Z,53.03
2019-02-16T17:16:53.363Z,55.23
2019-02-16T17:19:29.632Z,35.13
2019-02-16T17:22:12.479Z,35.23
2019-02-16T17:24:42.694Z,27.77
2019-02-16T17:27:15.995Z,34.00
2019-02-16T17:29:46.268Z,29.90
2019-02-16T17:32:16.617Z,28.07
2019-02-16T17:34:49.731Z,25.17
2019-02-16T17:37:22.717Z,25.63
2019-02-16T17:39:53.211Z,25.32
2019-02-16T17:42:39.482Z,21.62
2019-02-16T17:45:17.230Z,24.25
2019-02-16T17:47:50.564Z,23.62
2019-02-16T17:50:39.229Z,24.92
2019-02-16T17:53:27.476Z,27.17
2019-02-16T17:56:03.593Z,28.00
2019-02-16T17:58:36.310Z,25.23
2019-02-16T18:01:06.627Z,24.45
2019-02-16T18:03:45.734Z,26.55
2019-02-16T18:06:21.861Z,30.62
2019-02-16T18:08:58.250Z,24.77
2019-02-16T18:11:28.851Z,28.45
2019-02-16T18:14:07.834Z,27.65
2019-02-16T18:16:56.438Z,28.07
2019-02-16T18:19:26.688Z,26.90
2019-02-16T18:21:57.283Z,27.97
2019-02-16T18:24:44.150Z,28.93
2019-02-16T18:27:14.388Z,30.20
2019-02-16T18:29:59.693Z,27.17
2019-02-16T18:32:31.558Z,26.80
2019-02-16T18:35:08.404Z,24.75
2019-02-16T18:37:51.045Z,25.60
2019-02-16T18:40:30.463Z,25.30
2019-02-16T18:43:00.841Z,26.05
2019-02-16T18:45:40.118Z,27.48
2019-02-16T18:48:13.055Z,26.42
2019-02-16T18:50:43.337Z,25.23
2019-02-16T18:53:22.341Z,26.30
2019-02-16T18:55:52.580Z,27.75
2019-02-16T18:58:25.687Z,27.60
2019-02-16T19:00:56.140Z,26.37
2019-02-16T19:03:35.214Z,27.77
2019-02-16T19:06:05.526Z,27.93
2019-02-16T19:08:35.966Z,26.07
2019-02-16T19:11:22.534Z,26.25
2019-02-16T19:13:58.433Z,26.50
2019-02-16T19:16:37.592Z,26.90
2019-02-16T19:19:13.816Z,27.13
2019-02-16T19:21:47.130Z,26.85
2019-02-16T19:24:17.780Z,27.53
2019-02-16T19:26:48.072Z,28.02
2019-02-16T19:29:27.701Z,27.90
2019-02-16T19:31:57.996Z,29.12
2019-02-16T19:34:28.461Z,27.45
2019-02-16T19:37:07.829Z,28.73
2019-02-16T19:39:38.081Z,29.52
2019-02-16T19:42:08.377Z,28.98
2019-02-16T19:44:38.632Z,29.20
2019-02-16T19:47:11.839Z,26.93
2019-02-16T19:49:57.173Z,29.48
2019-02-16T19:52:27.569Z,30.60
2019-02-16T19:54:57.801Z,30.50
2019-02-16T19:57:31.005Z,28.98
2019-02-16T20:00:17.957Z,28.80
2019-02-16T20:03:03.429Z,28.02
2019-02-16T20:05:33.685Z,28.02
2019-02-16T20:08:09.860Z,28.92
2019-02-16T20:10:56.491Z,28.05
2019-02-16T20:13:29.743Z,27.98
2019-02-16T20:16:02.970Z,26.07
2019-02-16T20:18:51.700Z,27.93
2019-02-16T20:21:40.222Z,28.02
2019-02-16T20:24:13.239Z,25.40
2019-02-16T20:26:43.851Z,26.70
2019-02-16T20:29:14.141Z,27.50
2019-02-16T20:32:00.833Z,26.52
2019-02-16T20:34:31.111Z,25.32
2019-02-16T20:37:07.391Z,26.07
2019-02-16T20:39:43.819Z,27.20
2019-02-16T20:42:14.105Z,27.52
2019-02-16T20:44:47.062Z,25.70
2019-02-16T20:47:26.527Z,26.20
2019-02-16T20:49:59.586Z,26.67
2019-02-16T20:52:32.908Z,26.70
2019-02-16T20:55:03.094Z,27.62
2019-02-16T20:57:33.352Z,27.17
2019-02-16T21:00:06.247Z,26.20
2019-02-16T21:02:36.492Z,26.25
2019-02-16T21:05:25.390Z,27.10
2019-02-16T21:07:55.744Z,26.40
2019-02-16T21:10:26.021Z,26.90
2019-02-16T21:12:56.270Z,26.30
2019-02-16T21:15:26.576Z,26.48
2019-02-16T21:17:57.544Z,26.90
2019-02-16T21:20:44.233Z,26.47
2019-02-16T21:23:30.937Z,27.30
2019-02-16T21:26:04.114Z,28.00
2019-02-16T21:28:37.248Z,27.30
2019-02-16T21:31:10.262Z,28.63
2019-02-16T21:33:46.295Z,28.45
2019-02-16T21:36:16.580Z,29.37
2019-02-16T21:39:03.697Z,28.20
2019-02-16T21:41:49.248Z,25.55
2019-02-16T21:44:22.485Z,27.70
2019-02-16T21:47:02.833Z,27.53
2019-02-16T21:49:33.070Z,25.77
2019-02-16T21:52:03.391Z,28.05
2019-02-16T21:54:42.546Z,27.60
2019-02-16T21:57:24.787Z,27.60
2019-02-16T22:00:13.026Z,29.87
2019-02-16T22:02:49.156Z,29.90
2019-02-16T22:05:19.552Z,31.80
2019-02-16T22:07:59.256Z,29.67
2019-02-16T22:10:29.752Z,30.62
2019-02-16T22:13:02.568Z,31.07
2019-02-16T22:15:31.424Z,30.08
2019-02-16T22:18:00.044Z,29.63
2019-02-16T22:20:28.694Z,30.60
2019-02-16T22:22:57.346Z,30.35
2019-02-16T22:25:26.041Z,31.10
2019-02-16T22:27:54.682Z,29.80
2019-02-16T22:30:23.414Z,29.98
2019-02-16T22:32:52.084Z,29.97
2019-02-16T22:35:20.768Z,30.25
2019-02-16T22:37:49.494Z,27.90
2019-02-16T22:40:18.280Z,27.17
2019-02-16T22:42:46.930Z,28.25
2019-02-16T22:45:15.579Z,28.05
2019-02-16T22:47:44.196Z,29.72
2019-02-16T22:50:12.883Z,30.80
2019-02-16T22:52:42.118Z,28.47
2019-02-16T22:55:10.846Z,28.32
2019-02-16T22:57:39.497Z,28.00
2019-02-16T23:00:18.764Z,27.82
2019-02-16T23:02:47.680Z,27.58
2019-02-16T23:05:16.386Z,26.55
2019-02-16T23:07:44.993Z,29.30
2019-02-16T23:10:13.942Z,27.30
2019-02-16T23:12:42.559Z,27.80
2019-02-16T23:15:12.333Z,27.93
2019-02-16T23:17:41.061Z,27.15
2019-02-16T23:20:11.565Z,27.48
2019-02-16T23:22:40.815Z,26.85
2019-02-16T23:25:09.635Z,26.57
2019-02-16T23:27:38.384Z,28.60
2019-02-16T23:30:11.753Z,29.50
2019-02-16T23:32:40.610Z,28.00
2019-02-16T23:35:09.744Z,29.60
2019-02-16T23:37:38.379Z,27.73
2019-02-16T23:40:08.500Z,29.50
2019-02-16T23:42:37.294Z,29.82
2019-02-16T23:45:08.611Z,26.95
2019-02-16T23:47:37.237Z,28.05
2019-02-16T23:50:08.653Z,27.25
2019-02-16T23:52:37.300Z,27.52
2019-02-16T23:55:08.805Z,26.50
2019-02-16T23:57:37.475Z,26.57
